Station Historical Data
Daily Summary for October 18, 2017 Units:  English    Metric   Both
« Previous Day
Next Day »
Daily Weekly Monthly Yearly Custom
  High: Low: Average:
Temperature: 68.3 °F 44.8 °F 54.7 °F
Dew Point: 48.4 °F 42.2 °F 45.2 °F
Humidity: 92% 41% 73%
Wind Speed: 16.1mph 1.0mph 4.5mph
Wind Gust: 16.1mph - -
Wind- - East
Pressure: 30.39 in 30.29 in -
Precipitation: 0.00 in    
Historical Graphs
 
 
Tabular Data for October 18, 2017
Time Temperature Dew Point Pressure Wind Wind Speed Wind Gust Humidity Rainfall Rate (Hourly) Conditions
00:01 49.0 °F 45.6 °F 30.33 in ESE 1.2 mph 1.2 mph 88% 0.00 in CLR
00:06 48.9 °F 45.5 °F 30.33 in ESE 1.2 mph 1.2 mph 88% 0.00 in CLR
00:11 48.9 °F 45.5 °F 30.33 in ESE 1.2 mph 1.2 mph 88% 0.00 in CLR
00:16 48.8 °F 45.4 °F 30.33 in ESE 1.2 mph 1.2 mph 88% 0.00 in CLR
00:21 48.9 °F 45.5 °F 30.33 in ESE 1.2 mph 1.2 mph 88% 0.00 in CLR
00:26 48.9 °F 45.5 °F 30.33 in ESE 1.2 mph 1.2 mph 88% 0.00 in CLR
00:31 48.9 °F 45.5 °F 30.33 in ESE 1.2 mph 1.2 mph 88% 0.00 in CLR
00:36 48.9 °F 45.5 °F 30.33 in ESE 1.2 mph 1.2 mph 88% 0.00 in CLR
00:41 48.8 °F 45.4 °F 30.33 in ESE 1.2 mph 1.2 mph 88% 0.00 in CLR
00:46 48.7 °F 45.3 °F 30.33 in ESE 1.2 mph 1.2 mph 88% 0.00 in CLR
00:51 48.7 °F 45.0 °F 30.33 in ESE 1.2 mph 1.2 mph 87% 0.00 in CLR
00:56 48.8 °F 44.8 °F 30.33 in ESE 1.2 mph 1.2 mph 86% 0.00 in CLR
01:01 48.8 °F 45.1 °F 30.33 in ESE 1.2 mph 1.2 mph 87% 0.00 in CLR
01:06 48.6 °F 44.9 °F 30.33 in ESE 1.2 mph 1.2 mph 87% 0.00 in CLR
01:11 48.5 °F 45.1 °F 30.33 in ESE 1.2 mph 1.2 mph 88% 0.00 in CLR
01:16 48.4 °F 45.0 °F 30.33 in ESE 1.2 mph 1.2 mph 88% 0.00 in CLR
01:21 48.2 °F 44.8 °F 30.33 in ESE 1.2 mph 1.2 mph 88% 0.00 in CLR
01:26 48.0 °F 44.6 °F 30.33 in ESE 1.2 mph 1.2 mph 88% 0.00 in CLR
01:31 47.8 °F 44.4 °F 30.33 in ESE 1.2 mph 1.2 mph 88% 0.00 in CLR
01:36 47.8 °F 44.7 °F 30.33 in ESE 1.2 mph 1.2 mph 89% 0.00 in CLR
01:41 47.7 °F 44.6 °F 30.33 in ESE 1.2 mph 1.2 mph 89% 0.00 in CLR
01:46 47.5 °F 44.4 °F 30.33 in ESE 1.2 mph 1.2 mph 89% 0.00 in CLR
01:51 47.3 °F 44.2 °F 30.33 in ESE 1.2 mph 1.2 mph 89% 0.00 in CLR
01:54 47.3 °F 44.2 °F 30.33 in ESE 1.2 mph 1.2 mph 89% 0.00 in CLR
02:00 47.2 °F 44.4 °F 30.33 in ESE 1.2 mph 1.2 mph 90% 0.00 in CLR
02:05 47.0 °F 43.9 °F 30.33 in ESE 1.2 mph 1.2 mph 89% 0.00 in CLR
02:10 46.9 °F 43.8 °F 30.33 in ESE 1.2 mph 1.2 mph 89% 0.00 in CLR
02:15 46.8 °F 44.0 °F 30.33 in ESE 1.0 mph 1.0 mph 90% 0.00 in CLR
02:20 46.8 °F 44.0 °F 30.33 in ESE 1.0 mph 1.0 mph 90% 0.00 in CLR
02:25 46.7 °F 43.9 °F 30.32 in ESE 1.0 mph 1.0 mph 90% 0.00 in CLR
02:30 46.6 °F 43.8 °F 30.32 in ESE 1.0 mph 1.0 mph 90% 0.00 in CLR
02:35 46.5 °F 43.7 °F 30.33 in ESE 1.2 mph   90% 0.00 in CLR
02:40 46.4 °F 43.6 °F 30.33 in ESE 1.2 mph   90% 0.00 in CLR
02:45 46.4 °F 43.6 °F 30.33 in ESE 1.2 mph 1.2 mph 90% 0.00 in CLR
02:50 46.4 °F 43.6 °F 30.33 in ESE 1.2 mph 1.2 mph 90% 0.00 in CLR
02:55 46.3 °F 43.5 °F 30.33 in ESE 1.2 mph 1.2 mph 90% 0.00 in CLR
03:00 46.3 °F 43.5 °F 30.33 in ESE 1.2 mph 1.2 mph 90% 0.00 in CLR
03:05 46.2 °F 43.4 °F 30.33 in ESE 1.2 mph 1.2 mph 90% 0.00 in CLR
03:10 46.1 °F 43.3 °F 30.33 in ESE 1.2 mph 1.2 mph 90% 0.00 in CLR
03:15 46.0 °F 43.2 °F 30.33 in ESE 1.2 mph 1.2 mph 90% 0.00 in CLR
03:20 45.9 °F 43.1 °F 30.32 in ESE 1.2 mph 1.2 mph 90% 0.00 in CLR
03:25 45.8 °F 43.0 °F 30.32 in ESE 1.2 mph 1.2 mph 90% 0.00 in CLR
03:30 45.7 °F 42.9 °F 30.32 in ESE 1.2 mph 1.2 mph 90% 0.00 in CLR
03:35 45.7 °F 42.9 °F 30.32 in ESE 1.2 mph 1.2 mph 90% 0.00 in CLR
03:40 45.8 °F 43.3 °F 30.32 in ESE 1.2 mph 1.2 mph 91% 0.00 in CLR
03:45 45.8 °F 43.3 °F 30.32 in ESE 1.2 mph 1.2 mph 91% 0.00 in CLR
03:50 45.9 °F 43.4 °F 30.32 in ESE 1.2 mph 1.2 mph 91% 0.00 in CLR
03:55 46.0 °F 43.2 °F 30.32 in ESE 1.2 mph 1.2 mph 90% 0.00 in CLR
04:01 46.1 °F 43.3 °F 30.32 in ESE 1.2 mph 1.2 mph 90% 0.00 in CLR
04:06 46.2 °F 43.4 °F 30.32 in NE 3.5 mph 3.5 mph 90% 0.00 in CLR
04:11 46.2 °F 43.1 °F 30.31 in NE 3.5 mph 3.5 mph 89% 0.00 in CLR
04:16 46.2 °F 43.1 °F 30.31 in NE 3.5 mph 3.5 mph 89% 0.00 in CLR
04:21 46.1 °F 43.0 °F 30.31 in NE 3.5 mph 3.5 mph 89% 0.00 in CLR
04:26 46.1 °F 43.0 °F 30.31 in NE 3.5 mph 3.5 mph 89% 0.00 in CLR
04:31 46.2 °F 43.1 °F 30.31 in NE 3.5 mph 3.5 mph 89% 0.00 in CLR
04:36 46.2 °F 43.1 °F 30.31 in NE 3.5 mph 3.5 mph 89% 0.00 in CLR
04:41 46.2 °F 43.1 °F 30.32 in NE 3.5 mph 3.5 mph 89% 0.00 in CLR
04:46 46.3 °F 43.2 °F 30.32 in NE 3.5 mph 3.5 mph 89% 0.00 in CLR
04:51 46.3 °F 43.2 °F 30.32 in NE 3.5 mph 3.5 mph 89% 0.00 in CLR
04:56 46.2 °F 43.1 °F 30.32 in NE 3.5 mph 3.5 mph 89% 0.00 in CLR
05:01 46.2 °F 43.1 °F 30.32 in NE 3.5 mph 3.5 mph 89% 0.00 in CLR
05:06 46.1 °F 43.0 °F 30.33 in NE 2.3 mph 2.3 mph 89% 0.00 in CLR
05:11 46.0 °F 42.9 °F 30.32 in NE 2.3 mph 2.3 mph 89% 0.00 in CLR
05:17 45.9 °F 42.8 °F 30.32 in NE 2.3 mph 2.3 mph 89% 0.00 in CLR
05:22 45.7 °F 42.6 °F 30.33 in NE 2.3 mph 2.3 mph 89% 0.00 in CLR
05:27 45.7 °F 42.9 °F 30.33 in NE 2.3 mph 2.3 mph 90% 0.00 in CLR
05:32 45.7 °F 42.9 °F 30.33 in NE 2.3 mph 2.3 mph 90% 0.00 in CLR
05:37 45.9 °F 43.1 °F 30.33 in NE 2.3 mph 2.3 mph 90% 0.00 in CLR
05:42 45.9 °F 43.1 °F 30.33 in NE 2.3 mph 2.3 mph 90% 0.00 in CLR
05:47 45.8 °F 43.0 °F 30.33 in NE 2.3 mph 2.3 mph 90% 0.00 in CLR
05:52 45.6 °F 42.8 °F 30.33 in NE 2.3 mph 2.3 mph 90% 0.00 in CLR
05:57 45.6 °F 42.8 °F 30.34 in NE 2.3 mph 2.3 mph 90% 0.00 in CLR
06:02 45.6 °F 42.8 °F 30.34 in NE 3.5 mph 3.5 mph 90% 0.00 in CLR
06:07 45.6 °F 42.8 °F 30.34 in NE 3.5 mph 3.5 mph 90% 0.00 in CLR
06:12 45.7 °F 42.9 °F 30.34 in NE 3.5 mph 3.5 mph 90% 0.00 in CLR
06:17 45.8 °F 43.0 °F 30.34 in NE 3.5 mph 3.5 mph 90% 0.00 in CLR
06:22 45.8 °F 43.0 °F 30.34 in NE 3.5 mph 3.5 mph 90% 0.00 in CLR
06:27 45.6 °F 42.8 °F 30.34 in NE 3.5 mph 3.5 mph 90% 0.00 in CLR
06:32 45.5 °F 42.7 °F 30.35 in NE 3.5 mph 3.5 mph 90% 0.00 in CLR
06:37 45.4 °F 42.6 °F 30.35 in NE 3.5 mph 3.5 mph 90% 0.00 in CLR
06:42 45.3 °F 42.5 °F 30.35 in NE 3.5 mph 3.5 mph 90% 0.00 in CLR
06:48 45.3 °F 42.5 °F 30.35 in NE 3.5 mph 3.5 mph 90% 0.00 in CLR
06:53 45.1 °F 42.3 °F 30.35 in NE 3.5 mph 3.5 mph 90% 0.00 in CLR
06:58 45.0 °F 42.2 °F 30.35 in NE 3.5 mph 3.5 mph 90% 0.00 in CLR
07:03 45.0 °F 42.5 °F 30.35 in ENE 3.5 mph 3.5 mph 91% 0.00 in CLR
07:08 45.0 °F 42.5 °F 30.36 in ENE 3.5 mph 3.5 mph 91% 0.00 in CLR
07:13 44.9 °F 42.4 °F 30.36 in ENE 3.5 mph 3.5 mph 91% 0.00 in CLR
07:18 44.9 °F 42.4 °F 30.36 in ENE 3.5 mph 3.5 mph 91% 0.00 in CLR
07:23 44.8 °F 42.3 °F 30.36 in ENE 3.5 mph 3.5 mph 91% 0.00 in CLR
07:28 44.9 °F 42.4 °F 30.36 in ENE 3.5 mph 3.5 mph 91% 0.00 in CLR
07:33 44.8 °F 42.3 °F 30.36 in ENE 3.5 mph 3.5 mph 91% 0.00 in CLR
07:39 44.8 °F 42.3 °F 30.36 in ENE 3.5 mph 3.5 mph 91% 0.00 in CLR
07:44 44.9 °F 42.7 °F 30.36 in ENE 3.5 mph 3.5 mph 92% 0.00 in CLR
07:49 45.1 °F 42.9 °F 30.36 in ENE 3.5 mph 3.5 mph 92% 0.00 in CLR
07:54 45.1 °F 42.9 °F 30.36 in ENE 3.5 mph 3.5 mph 92% 0.00 in CLR
07:59 45.2 °F 43.0 °F 30.36 in ENE 3.5 mph 3.5 mph 92% 0.00 in CLR
08:04 45.3 °F 43.1 °F 30.36 in NE 2.3 mph 2.3 mph 92% 0.00 in FEW
08:09 45.4 °F 42.9 °F 30.36 in NE 2.3 mph 2.3 mph 91% 0.00 in FEW
08:19 45.4 °F 42.9 °F 30.37 in NE 2.3 mph 2.3 mph 91% 0.00 in FEW
08:24 45.5 °F 43.0 °F 30.37 in NE 2.3 mph 2.3 mph 91% 0.00 in FEW
08:29 45.6 °F 43.4 °F 30.37 in NE 2.3 mph 2.3 mph 92% 0.00 in FEW
08:34 45.8 °F 43.6 °F 30.37 in NE 2.3 mph 2.3 mph 92% 0.00 in FEW
08:39 46.0 °F 43.8 °F 30.38 in NE 2.3 mph 2.3 mph 92% 0.00 in FEW
08:44 46.3 °F 44.1 °F 30.37 in NE 2.3 mph 2.3 mph 92% 0.00 in FEW
08:49 46.9 °F 44.4 °F 30.38 in NE 2.3 mph 2.3 mph 91% 0.00 in FEW
08:54 47.6 °F 44.8 °F 30.38 in NE 2.3 mph 2.3 mph 90% 0.00 in FEW
08:59 48.2 °F 44.8 °F 30.38 in NE 2.3 mph 2.3 mph 88% 0.00 in FEW
09:04 48.7 °F 44.7 °F 30.38 in ENE 5.8 mph 5.8 mph 86% 0.00 in FEW
09:09 49.0 °F 45.0 °F 30.38 in ENE 5.8 mph 5.8 mph 86% 0.00 in FEW
09:14 49.4 °F 45.1 °F 30.38 in ENE 5.8 mph 5.8 mph 85% 0.00 in FEW
09:20 49.8 °F 44.8 °F 30.38 in ENE 5.8 mph 5.8 mph 83% 0.00 in FEW
09:25 50.2 °F 45.2 °F 30.38 in ENE 5.8 mph 5.8 mph 83% 0.00 in FEW
09:30 50.5 °F 45.2 °F 30.38 in ENE 5.8 mph 5.8 mph 82% 0.00 in FEW
09:35 50.9 °F 44.9 °F 30.38 in ENE 6.0 mph 6.0 mph 80% 0.00 in FEW
09:40 51.3 °F 45.3 °F 30.38 in ENE 6.0 mph 6.0 mph 80% 0.00 in FEW
09:45 51.6 °F 45.0 °F 30.39 in ENE 6.0 mph 6.0 mph 78% 0.00 in FEW
09:50 51.9 °F 45.6 °F 30.39 in ENE 6.0 mph 6.0 mph 79% 0.00 in FEW
09:55 52.3 °F 46.0 °F 30.39 in ENE 5.8 mph 5.8 mph 79% 0.00 in FEW
10:00 52.7 °F 46.4 °F 30.39 in ENE 5.8 mph 5.8 mph 79% 0.00 in FEW
10:05 53.1 °F 45.7 °F 30.39 in East 5.8 mph 5.8 mph 76% 0.00 in FEW
10:10 53.4 °F 45.7 °F 30.39 in East 5.8 mph 5.8 mph 75% 0.00 in FEW
10:12 53.7 °F 46.0 °F 30.39 in East 5.8 mph 5.8 mph 75% 0.00 in FEW
10:17 54.0 °F 45.2 °F 30.39 in East 5.8 mph 5.8 mph 72% 0.00 in FEW
10:22 54.4 °F 45.2 °F 30.39 in East 5.8 mph 5.8 mph 71% 0.00 in FEW
10:27 54.8 °F 45.2 °F 30.39 in East 5.8 mph 5.8 mph 70% 0.00 in FEW
10:32 55.4 °F 45.8 °F 30.39 in East 5.8 mph 5.8 mph 70% 0.00 in FEW
10:38 56.2 °F 46.9 °F 30.39 in East 5.8 mph 5.8 mph 71% 0.00 in FEW
10:43 56.8 °F 46.7 °F 30.39 in East 5.8 mph 5.8 mph 69% 0.00 in FEW
10:48 57.6 °F 46.7 °F 30.39 in East 5.8 mph 5.8 mph 67% 0.00 in FEW
10:53 58.1 °F 46.0 °F 30.39 in East 5.8 mph 5.8 mph 64% 0.00 in FEW
10:58 58.4 °F 45.4 °F 30.39 in East 5.8 mph 5.8 mph 62% 0.00 in FEW
11:03 58.8 °F 45.4 °F 30.39 in East 10.4 mph 10.4 mph 61% 0.00 in FEW
11:08 59.3 °F 45.8 °F 30.39 in East 10.4 mph 10.4 mph 61% 0.00 in FEW
11:13 60.0 °F 46.5 °F 30.39 in East 10.4 mph 10.4 mph 61% 0.00 in FEW
11:18 60.8 °F 46.4 °F 30.39 in East 10.4 mph 10.4 mph 59% 0.00 in FEW
11:23 61.5 °F 46.1 °F 30.39 in East 10.4 mph 10.4 mph 57% 0.00 in FEW
11:28 61.9 °F 46.0 °F 30.39 in East 10.4 mph 10.4 mph 56% 0.00 in FEW
11:29 62.0 °F 46.6 °F 30.39 in East 10.4 mph 10.4 mph 57% 0.00 in FEW
11:34 62.3 °F 45.4 °F 30.39 in East 10.4 mph 10.4 mph 54% 0.00 in FEW
11:40 62.5 °F 46.6 °F 30.39 in East 10.4 mph 10.4 mph 56% 0.00 in FEW
11:45 62.8 °F 44.4 °F 30.39 in East 10.0 mph 10.0 mph 51% 0.00 in FEW
11:50 62.7 °F 45.8 °F 30.39 in East 10.4 mph 10.4 mph 54% 0.00 in FEW
11:55 62.9 °F 46.0 °F 30.39 in East 10.0 mph 10.0 mph 54% 0.00 in FEW
12:00 63.2 °F 44.8 °F 30.38 in East 10.0 mph 10.0 mph 51% 0.00 in FEW
12:05 63.2 °F 45.3 °F 30.39 in East 16.0 mph 16.0 mph 52% 0.00 in FEW
12:10 63.2 °F 45.3 °F 30.39 in East 16.0 mph 16.0 mph 52% 0.00 in FEW
12:15 63.3 °F 44.9 °F 30.39 in East 16.0 mph 16.0 mph 51% 0.00 in FEW
12:20 63.4 °F 44.9 °F 30.39 in East 16.0 mph 16.0 mph 51% 0.00 in FEW
12:25 63.1 °F 44.6 °F 30.38 in East 16.0 mph 16.0 mph 51% 0.00 in FEW
12:30 63.2 °F 44.8 °F 30.38 in East 16.1 mph 16.1 mph 51% 0.00 in FEW
12:35 63.1 °F 44.7 °F 30.38 in East 16.1 mph 16.1 mph 51% 0.00 in FEW
12:40 63.3 °F 44.3 °F 30.38 in East 16.0 mph 16.0 mph 50% 0.00 in FEW
12:45 63.4 °F 44.9 °F 30.37 in East 16.0 mph 16.0 mph 51% 0.00 in FEW
12:50 63.8 °F 45.3 °F 30.37 in East 16.0 mph 16.0 mph 51% 0.00 in FEW
12:55 64.0 °F 44.4 °F 30.37 in East 16.1 mph 16.1 mph 49% 0.00 in FEW
13:00 64.0 °F 45.5 °F 30.37 in East 16.1 mph 16.1 mph 51% 0.00 in FEW
13:05 64.0 °F 45.5 °F 30.36 in East 9.2 mph 9.2 mph 51% 0.00 in FEW
13:10 64.2 °F 44.6 °F 30.36 in East 9.2 mph 9.2 mph 49% 0.00 in FEW
13:15 64.3 °F 45.8 °F 30.36 in East 9.2 mph 9.2 mph 51% 0.00 in FEW
13:20 64.4 °F 45.3 °F 30.36 in East 9.2 mph 9.2 mph 50% 0.00 in FEW
13:21 64.4 °F 45.3 °F 30.36 in East 9.2 mph 9.2 mph 50% 0.00 in FEW
13:26 64.7 °F 45.1 °F 30.36 in East 9.2 mph 9.2 mph 49% 0.00 in FEW
13:31 64.7 °F 45.1 °F 30.35 in East 9.2 mph 9.2 mph 49% 0.00 in FEW
13:36 65.0 °F 45.4 °F 30.35 in East 9.2 mph 9.2 mph 49% 0.00 in FEW
13:41 65.6 °F 45.4 °F 30.35 in East 9.2 mph 9.2 mph 48% 0.00 in FEW
13:46 65.9 °F 44.5 °F 30.35 in East 9.2 mph 9.2 mph 46% 0.00 in FEW
13:51 66.2 °F 44.2 °F 30.34 in East 9.2 mph 9.2 mph 45% 0.00 in FEW
13:56 66.4 °F 44.4 °F 30.34 in East 9.2 mph 9.2 mph 45% 0.00 in FEW
14:01 66.7 °F 44.1 °F 30.34 in ESE 9.2 mph 9.2 mph 44% 0.00 in FEW
14:06 67.2 °F 45.1 °F 30.34 in ESE 8.1 mph 8.1 mph 45% 0.00 in FEW
14:11 67.5 °F 46.0 °F 30.33 in ESE 8.1 mph 8.1 mph 46% 0.00 in FEW
14:16 68.3 °F 44.3 °F 30.33 in ESE 8.1 mph 8.1 mph 42% 0.00 in FEW
14:22 67.7 °F 43.1 °F 30.33 in ESE 8.1 mph 8.1 mph 41% 0.00 in FEW
14:27 67.5 °F 44.8 °F 30.33 in ESE 8.1 mph 8.1 mph 44% 0.00 in FEW
14:32 67.6 °F 46.1 °F 30.33 in ESE 8.1 mph 8.1 mph 46% 0.00 in FEW
14:37 67.9 °F 44.6 °F 30.33 in ESE 8.1 mph 8.1 mph 43% 0.00 in FEW
14:42 67.8 °F 44.5 °F 30.32 in ESE 8.1 mph 8.1 mph 43% 0.00 in FEW
14:47 67.8 °F 45.1 °F 30.32 in ESE 8.1 mph 8.1 mph 44% 0.00 in FEW
14:52 67.9 °F 45.8 °F 30.32 in ESE 8.1 mph 8.1 mph 45% 0.00 in FEW
14:57 67.6 °F 44.9 °F 30.32 in ESE 8.1 mph 8.1 mph 44% 0.00 in FEW
15:02 67.6 °F 45.5 °F 30.31 in ESE 8.1 mph 8.1 mph 45% 0.00 in FEW
15:07 67.7 °F 45.0 °F 30.31 in ESE 6.9 mph 6.9 mph 44% 0.00 in FEW
15:12 67.6 °F 45.5 °F 30.31 in ESE 6.9 mph 6.9 mph 45% 0.00 in FEW
15:17 67.3 °F 45.2 °F 30.31 in ESE 6.9 mph 6.9 mph 45% 0.00 in FEW
15:22 67.2 °F 42.7 °F 30.31 in ESE 6.9 mph 6.9 mph 41% 0.00 in FEW
15:27 67.1 °F 43.8 °F 30.30 in ESE 6.9 mph 6.9 mph 43% 0.00 in FEW
15:32 67.2 °F 43.9 °F 30.31 in ESE 6.9 mph 6.9 mph 43% 0.00 in FEW
15:37 67.3 °F 44.6 °F 30.31 in ESE 6.9 mph 6.9 mph 44% 0.00 in FEW
15:42 67.3 °F 43.4 °F 30.30 in ESE 6.9 mph 6.9 mph 42% 0.00 in FEW
15:47 67.2 °F 43.3 °F 30.30 in ESE 6.9 mph 6.9 mph 42% 0.00 in FEW
15:52 67.2 °F 42.7 °F 30.30 in ESE 6.9 mph 6.9 mph 41% 0.00 in FEW
15:57 67.3 °F 44.0 °F 30.30 in ESE 6.9 mph 6.9 mph 43% 0.00 in FEW
16:02 67.2 °F 43.9 °F 30.30 in East 6.9 mph 6.9 mph 43% 0.00 in CLR
16:07 67.2 °F 45.1 °F 30.30 in East 5.8 mph 5.8 mph 45% 0.00 in CLR
16:12 67.2 °F 45.1 °F 30.30 in East 5.8 mph 5.8 mph 45% 0.00 in CLR
16:17 67.2 °F 44.5 °F 30.30 in East 5.8 mph 5.8 mph 44% 0.00 in CLR
16:23 67.1 °F 44.4 °F 30.30 in East 5.8 mph 5.8 mph 44% 0.00 in CLR
16:28 67.1 °F 45.6 °F 30.30 in East 5.8 mph 5.8 mph 46% 0.00 in CLR
16:30 67.1 °F 45.0 °F 30.30 in East 6.0 mph 6.0 mph 45% 0.00 in CLR
16:35 67.1 °F 45.0 °F 30.30 in East 5.8 mph 5.8 mph 45% 0.00 in CLR
16:40 67.2 °F 45.7 °F 30.30 in East 5.8 mph 5.8 mph 46% 0.00 in CLR
16:46 67.1 °F 46.2 °F 30.30 in East 5.8 mph 5.8 mph 47% 0.00 in CLR
16:51 66.9 °F 44.3 °F 30.29 in East 5.8 mph 5.8 mph 44% 0.00 in CLR
16:57 66.9 °F 44.3 °F 30.29 in East 5.8 mph 5.8 mph 44% 0.00 in CLR
17:13 66.3 °F 47.1 °F 30.29 in ENE 4.6 mph 4.6 mph 50% 0.00 in CLR
17:18 66.0 °F 46.3 °F 30.29 in ENE 4.6 mph 4.6 mph 49% 0.00 in CLR
17:23 65.8 °F 47.7 °F 30.29 in ENE 4.6 mph 4.6 mph 52% 0.00 in CLR
17:28 65.5 °F 48.4 °F 30.29 in ENE 4.6 mph 4.6 mph 54% 0.00 in CLR
17:33 65.0 °F 47.4 °F 30.29 in ENE 4.6 mph 4.6 mph 53% 0.00 in CLR
17:39 64.7 °F 47.2 °F 30.29 in ENE 4.6 mph 4.6 mph 53% 0.00 in CLR
17:44 64.5 °F 47.0 °F 30.29 in ENE 4.6 mph 4.6 mph 53% 0.00 in CLR
17:49 64.2 °F 47.7 °F 30.29 in ENE 4.6 mph 4.6 mph 55% 0.00 in CLR
17:54 63.8 °F 47.3 °F 30.29 in ENE 4.6 mph 4.6 mph 55% 0.00 in CLR
17:59 63.5 °F 47.5 °F 30.29 in ENE 4.6 mph 4.6 mph 56% 0.00 in CLR
18:04 63.2 °F 47.7 °F 30.29 in ENE 3.5 mph 3.5 mph 57% 0.00 in CLR
18:09 63.0 °F 48.0 °F 30.29 in ENE 3.5 mph 3.5 mph 58% 0.00 in CLR
18:12 62.8 °F 48.3 °F 30.29 in ENE 3.5 mph 3.5 mph 59% 0.00 in CLR
18:17 62.6 °F 48.1 °F 30.29 in ENE 3.5 mph 3.5 mph 59% 0.00 in CLR
18:22 62.3 °F 48.2 °F 30.29 in ENE 3.5 mph 3.5 mph 60% 0.00 in CLR
18:23 62.2 °F 48.1 °F 30.29 in ENE 3.5 mph 3.5 mph 60% 0.00 in CLR
18:28 62.0 °F 48.0 °F 30.29 in ENE 3.5 mph 3.5 mph 60% 0.00 in CLR
18:33 61.7 °F 48.1 °F 30.29 in ENE 3.5 mph 3.5 mph 61% 0.00 in CLR
18:38 61.5 °F 47.9 °F 30.29 in ENE 3.5 mph 3.5 mph 61% 0.00 in CLR
18:43 61.2 °F 48.1 °F 30.29 in ENE 3.5 mph 3.5 mph 62% 0.00 in CLR
18:48 61.0 °F 47.9 °F 30.29 in ENE 3.5 mph 3.5 mph 62% 0.00 in CLR
18:53 60.7 °F 47.2 °F 30.30 in ENE 3.5 mph 3.5 mph 61% 0.00 in CLR
18:58 60.4 °F 47.3 °F 30.30 in ENE 3.5 mph 3.5 mph 62% 0.00 in CLR
19:03 60.1 °F 47.0 °F 30.30 in ENE 3.5 mph 3.5 mph 62% 0.00 in CLR
19:08 59.8 °F 47.2 °F 30.30 in ENE 3.5 mph 3.5 mph 63% 0.00 in CLR
19:13 59.5 °F 47.3 °F 30.30 in ENE 3.5 mph 3.5 mph 64% 0.00 in CLR
19:18 59.2 °F 47.8 °F 30.30 in ENE 3.5 mph 3.5 mph 66% 0.00 in CLR
19:23 58.8 °F 47.9 °F 30.30 in ENE 3.5 mph 3.5 mph 67% 0.00 in CLR
19:28 58.4 °F 47.9 °F 30.30 in ENE 3.5 mph 3.5 mph 68% 0.00 in CLR
19:33 58.1 °F 48.0 °F 30.30 in ENE 3.5 mph 3.5 mph 69% 0.00 in CLR
19:38 57.7 °F 48.0 °F 30.30 in ENE 3.5 mph 3.5 mph 70% 0.00 in CLR
19:44 57.4 °F 48.4 °F 30.31 in ENE 3.5 mph 3.5 mph 72% 0.00 in CLR
19:49 56.9 °F 48.3 °F 30.31 in ENE 3.5 mph 3.5 mph 73% 0.00 in CLR
19:54 56.6 °F 48.4 °F 30.31 in ENE 3.5 mph 3.5 mph 74% 0.00 in CLR
19:59 56.2 °F 47.7 °F 30.31 in ENE 3.5 mph 3.5 mph 73% 0.00 in CLR
20:04 56.1 °F 47.2 °F 30.31 in East 2.3 mph 2.3 mph 72% 0.00 in CLR
20:09 56.0 °F 47.5 °F 30.31 in East 2.3 mph 2.3 mph 73% 0.00 in CLR
20:14 55.8 °F 47.6 °F 30.31 in East 2.3 mph 2.3 mph 74% 0.00 in CLR
20:19 55.6 °F 47.8 °F 30.31 in East 2.3 mph 2.3 mph 75% 0.00 in CLR
20:24 55.3 °F 47.9 °F 30.31 in East 2.3 mph 2.3 mph 76% 0.00 in CLR
20:29 55.1 °F 47.7 °F 30.31 in East 2.3 mph 2.3 mph 76% 0.00 in CLR
20:34 54.9 °F 47.5 °F 30.32 in East 2.3 mph 2.3 mph 76% 0.00 in CLR
20:39 54.8 °F 48.1 °F 30.32 in East 2.3 mph 2.3 mph 78% 0.00 in CLR
20:44 54.7 °F 48.0 °F 30.32 in East 2.3 mph 2.3 mph 78% 0.00 in CLR
20:49 54.4 °F 48.0 °F 30.32 in East 2.3 mph 2.3 mph 79% 0.00 in CLR
20:54 54.2 °F 47.8 °F 30.32 in East 2.3 mph 2.3 mph 79% 0.00 in CLR
20:59 54.2 °F 47.5 °F 30.32 in East 2.3 mph 2.3 mph 78% 0.00 in CLR
21:04 54.1 °F 48.1 °F 30.32 in NE 1.2 mph 1.2 mph 80% 0.00 in CLR
21:09 53.9 °F 47.9 °F 30.32 in NE 1.2 mph 1.2 mph 80% 0.00 in CLR
21:14 53.8 °F 47.4 °F 30.32 in NE 1.2 mph 1.2 mph 79% 0.00 in CLR
21:19 53.6 °F 46.9 °F 30.32 in NE 1.2 mph 1.2 mph 78% 0.00 in CLR
21:24 53.6 °F 47.9 °F 30.32 in NE 1.2 mph 1.2 mph 81% 0.00 in CLR
21:29 53.3 °F 47.6 °F 30.33 in NE 1.2 mph 1.2 mph 81% 0.00 in CLR
21:34 53.0 °F 47.7 °F 30.33 in NE 1.2 mph 1.2 mph 82% 0.00 in CLR
21:39 52.7 °F 47.4 °F 30.33 in NE 1.2 mph 1.2 mph 82% 0.00 in CLR
21:44 52.5 °F 47.5 °F 30.33 in NE 1.2 mph 1.2 mph 83% 0.00 in CLR
21:49 52.3 °F 47.6 °F 30.33 in NE 1.2 mph 1.2 mph 84% 0.00 in CLR
21:54 52.2 °F 47.5 °F 30.33 in NE 1.2 mph 1.2 mph 84% 0.00 in CLR
21:59 52.0 °F 47.3 °F 30.33 in NE 1.2 mph 1.2 mph 84% 0.00 in CLR
22:04 51.8 °F 47.1 °F 30.33 in NE 3.5 mph 3.5 mph 84% 0.00 in CLR
22:09 51.6 °F 47.2 °F 30.33 in NE 3.5 mph 3.5 mph 85% 0.00 in CLR
22:15 51.5 °F 47.1 °F 30.34 in NE 3.5 mph 3.5 mph 85% 0.00 in CLR
22:20 51.4 °F 47.0 °F 30.34 in NE 3.5 mph 3.5 mph 85% 0.00 in CLR
22:25 51.3 °F 46.9 °F 30.33 in NE 3.5 mph 3.5 mph 85% 0.00 in CLR
22:30 51.2 °F 46.8 °F 30.33 in NE 3.5 mph 3.5 mph 85% 0.00 in CLR
22:35 51.2 °F 46.8 °F 30.33 in NE 3.5 mph 3.5 mph 85% 0.00 in CLR
22:40 51.2 °F 46.5 °F 30.33 in NE 3.0 mph 3.0 mph 84% 0.00 in CLR
22:45 51.3 °F 46.6 °F 30.33 in NE 3.0 mph 3.0 mph 84% 0.00 in CLR
22:50 51.6 °F 46.6 °F 30.33 in NE 3.0 mph 3.0 mph 83% 0.00 in CLR
22:55 51.8 °F 46.5 °F 30.33 in NE 3.0 mph 3.0 mph 82% 0.00 in CLR
23:00 52.0 °F 46.7 °F 30.33 in NE 3.0 mph 3.0 mph 82% 0.00 in CLR
23:05 52.2 °F 46.5 °F 30.33 in ENE 2.0 mph 3.0 mph 81% 0.00 in CLR
23:10 52.3 °F 46.3 °F 30.33 in East 2.0 mph 2.0 mph 80% 0.00 in CLR
23:16 52.3 °F 46.3 °F 30.34 in East 2.3 mph 2.3 mph 80% 0.00 in CLR
23:21 52.2 °F 46.2 °F 30.33 in East 2.3 mph 2.3 mph 80% 0.00 in CLR
23:22 52.2 °F 46.5 °F 30.34 in East 2.3 mph 2.3 mph 81% 0.00 in CLR
23:23 52.2 °F 46.5 °F 30.34 in East 2.3 mph 2.3 mph 81% 0.00 in CLR
23:28 52.0 °F 46.3 °F 30.34 in East 2.3 mph 2.3 mph 81% 0.00 in CLR
23:29 52.0 °F 46.3 °F 30.34 in East 2.3 mph 2.3 mph 81% 0.00 in CLR
23:30 51.9 °F 46.6 °F 30.34 in East 2.3 mph 2.3 mph 82% 0.00 in CLR
23:31 51.9 °F 46.6 °F 30.34 in East 2.3 mph 2.3 mph 82% 0.00 in CLR
23:33 51.8 °F 46.5 °F 30.34 in East 2.3 mph 2.3 mph 82% 0.00 in CLR
23:38 51.5 °F 46.5 °F 30.33 in East 2.3 mph 2.3 mph 83% 0.00 in CLR
23:41 51.2 °F 46.2 °F 30.33 in East 2.3 mph 2.3 mph 83% 0.00 in CLR
23:46 50.9 °F 46.2 °F 30.33 in East 2.3 mph 2.3 mph 84% 0.00 in CLR
23:51 50.7 °F 46.0 °F 30.33 in East 2.3 mph 2.3 mph 84% 0.00 in CLR
23:56 50.8 °F 46.1 °F 30.33 in East 2.3 mph 2.3 mph 84% 0.00 in CLR
Piedmont Bend
Compliments of Weather Underground - 4 mb